sensor_id;sensor_type;location;lat;lon;timestamp;temperature;humidity
6672;DHT22;3372;48.690;12.362;2023-05-02T00:00:08;13.80;75.10
6672;DHT22;3372;48.690;12.362;2023-05-02T00:02:33;13.90;74.00
6672;DHT22;3372;48.690;12.362;2023-05-02T00:04:59;14.00;73.10
6672;DHT22;3372;48.690;12.362;2023-05-02T00:07:25;13.80;75.00
6672;DHT22;3372;48.690;12.362;2023-05-02T00:09:51;13.80;75.10
6672;DHT22;3372;48.690;12.362;2023-05-02T00:12:17;13.90;73.10
6672;DHT22;3372;48.690;12.362;2023-05-02T00:14:42;13.90;71.30
6672;DHT22;3372;48.690;12.362;2023-05-02T00:17:08;13.90;70.20
6672;DHT22;3372;48.690;12.362;2023-05-02T00:19:39;13.90;68.60
6672;DHT22;3372;48.690;12.362;2023-05-02T00:22:05;13.90;68.30
6672;DHT22;3372;48.690;12.362;2023-05-02T00:24:30;13.90;68.10
6672;DHT22;3372;48.690;12.362;2023-05-02T00:26:56;13.70;71.00
6672;DHT22;3372;48.690;12.362;2023-05-02T00:29:21;13.80;69.80
6672;DHT22;3372;48.690;12.362;2023-05-02T00:31:47;13.70;69.40
6672;DHT22;3372;48.690;12.362;2023-05-02T00:34:12;13.60;70.10
6672;DHT22;3372;48.690;12.362;2023-05-02T00:36:38;13.70;68.70
6672;DHT22;3372;48.690;12.362;2023-05-02T00:39:04;13.70;68.50
6672;DHT22;3372;48.690;12.362;2023-05-02T00:41:29;13.80;68.40
6672;DHT22;3372;48.690;12.362;2023-05-02T00:43:55;13.60;68.90
6672;DHT22;3372;48.690;12.362;2023-05-02T00:46:22;13.60;68.80
6672;DHT22;3372;48.690;12.362;2023-05-02T00:48:47;13.60;68.70
6672;DHT22;3372;48.690;12.362;2023-05-02T00:51:13;13.50;70.00
6672;DHT22;3372;48.690;12.362;2023-05-02T00:53:39;13.60;69.70
6672;DHT22;3372;48.690;12.362;2023-05-02T00:56:06;13.60;68.80
6672;DHT22;3372;48.690;12.362;2023-05-02T00:58:32;13.60;69.40
6672;DHT22;3372;48.690;12.362;2023-05-02T01:09:57;13.40;72.20
6672;DHT22;3372;48.690;12.362;2023-05-02T01:12:44;13.10;76.40
6672;DHT22;3372;48.690;12.362;2023-05-02T01:15:16;13.20;75.80
6672;DHT22;3372;48.690;12.362;2023-05-02T01:17:43;13.30;74.00
6672;DHT22;3372;48.690;12.362;2023-05-02T01:20:19;13.30;72.70
6672;DHT22;3372;48.690;12.362;2023-05-02T01:22:46;13.40;71.50
6672;DHT22;3372;48.690;12.362;2023-05-02T01:30:22;13.20;73.80
6672;DHT22;3372;48.690;12.362;2023-05-02T01:32:50;13.20;72.50
6672;DHT22;3372;48.690;12.362;2023-05-02T01:35:17;13.30;71.30
6672;DHT22;3372;48.690;12.362;2023-05-02T01:37:45;13.30;71.60
6672;DHT22;3372;48.690;12.362;2023-05-02T01:40:16;13.20;72.10
6672;DHT22;3372;48.690;12.362;2023-05-02T01:42:42;13.20;72.30
6672;DHT22;3372;48.690;12.362;2023-05-02T01:45:10;13.30;71.80
6672;DHT22;3372;48.690;12.362;2023-05-02T01:47:38;13.10;74.10
6672;DHT22;3372;48.690;12.362;2023-05-02T01:50:06;13.00;73.70
6672;DHT22;3372;48.690;12.362;2023-05-02T01:52:34;12.90;75.40
6672;DHT22;3372;48.690;12.362;2023-05-02T01:55:01;13.00;72.90
6672;DHT22;3372;48.690;12.362;2023-05-02T01:57:29;13.10;71.80
6672;DHT22;3372;48.690;12.362;2023-05-02T01:59:56;13.10;73.70
6672;DHT22;3372;48.690;12.362;2023-05-02T02:02:24;13.10;72.60
6672;DHT22;3372;48.690;12.362;2023-05-02T02:04:53;13.20;72.10
6672;DHT22;3372;48.690;12.362;2023-05-02T02:07:20;13.10;71.60
6672;DHT22;3372;48.690;12.362;2023-05-02T02:09:46;13.10;71.20
6672;DHT22;3372;48.690;12.362;2023-05-02T02:12:16;13.10;73.20
6672;DHT22;3372;48.690;12.362;2023-05-02T02:14:53;13.10;72.60
6672;DHT22;3372;48.690;12.362;2023-05-02T02:17:25;13.10;73.20
6672;DHT22;3372;48.690;12.362;2023-05-02T02:19:53;12.90;74.70
6672;DHT22;3372;48.690;12.362;2023-05-02T02:22:19;12.90;73.00
6672;DHT22;3372;48.690;12.362;2023-05-02T02:24:46;13.00;73.60
6672;DHT22;3372;48.690;12.362;2023-05-02T02:27:13;13.00;73.50
6672;DHT22;3372;48.690;12.362;2023-05-02T02:29:39;12.90;73.10
6672;DHT22;3372;48.690;12.362;2023-05-02T02:32:04;12.90;73.50
6672;DHT22;3372;48.690;12.362;2023-05-02T02:34:30;12.90;73.80
6672;DHT22;3372;48.690;12.362;2023-05-02T02:37:01;12.90;72.80
6672;DHT22;3372;48.690;12.362;2023-05-02T02:42:28;13.00;72.10
6672;DHT22;3372;48.690;12.362;2023-05-02T02:47:31;12.60;75.50
6672;DHT22;3372;48.690;12.362;2023-05-02T02:50:05;12.70;74.20
6672;DHT22;3372;48.690;12.362;2023-05-02T02:52:52;12.80;74.00
6672;DHT22;3372;48.690;12.362;2023-05-02T02:58:01;12.80;73.20
6672;DHT22;3372;48.690;12.362;2023-05-02T03:00:28;12.60;74.10
6672;DHT22;3372;48.690;12.362;2023-05-02T03:02:57;12.60;73.20
6672;DHT22;3372;48.690;12.362;2023-05-02T03:05:23;12.70;73.20
6672;DHT22;3372;48.690;12.362;2023-05-02T03:07:49;12.70;73.30
6672;DHT22;3372;48.690;12.362;2023-05-02T03:10:15;12.60;73.60
6672;DHT22;3372;48.690;12.362;2023-05-02T03:12:40;12.50;74.60
6672;DHT22;3372;48.690;12.362;2023-05-02T03:15:35;12.40;75.00
6672;DHT22;3372;48.690;12.362;2023-05-02T03:18:05;12.30;76.50
6672;DHT22;3372;48.690;12.362;2023-05-02T03:20:31;12.40;74.40
6672;DHT22;3372;48.690;12.362;2023-05-02T03:22:56;12.50;73.50
6672;DHT22;3372;48.690;12.362;2023-05-02T03:25:22;12.30;75.50
6672;DHT22;3372;48.690;12.362;2023-05-02T03:27:48;12.30;75.20
6672;DHT22;3372;48.690;12.362;2023-05-02T03:30:13;12.40;73.80
6672;DHT22;3372;48.690;12.362;2023-05-02T03:32:39;12.50;74.50
6672;DHT22;3372;48.690;12.362;2023-05-02T03:35:05;12.40;74.00
6672;DHT22;3372;48.690;12.362;2023-05-02T03:37:33;12.40;74.60
6672;DHT22;3372;48.690;12.362;2023-05-02T03:39:58;12.50;72.80
6672;DHT22;3372;48.690;12.362;2023-05-02T03:42:24;12.50;72.60
6672;DHT22;3372;48.690;12.362;2023-05-02T03:44:51;12.40;72.60
6672;DHT22;3372;48.690;12.362;2023-05-02T03:47:17;12.40;72.90
6672;DHT22;3372;48.690;12.362;2023-05-02T03:49:43;12.40;71.10
6672;DHT22;3372;48.690;12.362;2023-05-02T03:52:09;12.50;69.70
6672;DHT22;3372;48.690;12.362;2023-05-02T03:54:34;12.50;68.70
6672;DHT22;3372;48.690;12.362;2023-05-02T03:57:00;12.50;68.10
6672;DHT22;3372;48.690;12.362;2023-05-02T03:59:25;12.50;67.70
6672;DHT22;3372;48.690;12.362;2023-05-02T04:01:51;12.40;66.90
6672;DHT22;3372;48.690;12.362;2023-05-02T04:04:17;12.40;66.80
6672;DHT22;3372;48.690;12.362;2023-05-02T04:06:42;12.40;65.90
6672;DHT22;3372;48.690;12.362;2023-05-02T04:09:08;12.40;65.50
6672;DHT22;3372;48.690;12.362;2023-05-02T04:11:34;12.40;65.60
6672;DHT22;3372;48.690;12.362;2023-05-02T04:13:59;12.40;65.30
6672;DHT22;3372;48.690;12.362;2023-05-02T04:16:25;12.30;68.50
6672;DHT22;3372;48.690;12.362;2023-05-02T04:18:50;12.30;67.90
6672;DHT22;3372;48.690;12.362;2023-05-02T04:21:16;12.30;68.20
6672;DHT22;3372;48.690;12.362;2023-05-02T04:23:41;12.30;67.90
6672;DHT22;3372;48.690;12.362;2023-05-02T04:26:07;12.40;67.00
6672;DHT22;3372;48.690;12.362;2023-05-02T04:28:34;12.40;68.00
6672;DHT22;3372;48.690;12.362;2023-05-02T04:30:59;12.30;68.40
6672;DHT22;3372;48.690;12.362;2023-05-02T04:33:25;12.40;67.20
6672;DHT22;3372;48.690;12.362;2023-05-02T04:35:50;12.40;67.10
6672;DHT22;3372;48.690;12.362;2023-05-02T04:38:17;12.50;67.70
6672;DHT22;3372;48.690;12.362;2023-05-02T04:40:42;12.50;68.30
6672;DHT22;3372;48.690;12.362;2023-05-02T04:43:08;12.50;68.30
6672;DHT22;3372;48.690;12.362;2023-05-02T04:45:34;12.50;68.20
6672;DHT22;3372;48.690;12.362;2023-05-02T04:48:01;12.50;67.00
6672;DHT22;3372;48.690;12.362;2023-05-02T04:50:26;12.60;66.40
6672;DHT22;3372;48.690;12.362;2023-05-02T04:52:53;12.60;67.90
6672;DHT22;3372;48.690;12.362;2023-05-02T04:55:19;12.50;68.20
6672;DHT22;3372;48.690;12.362;2023-05-02T04:57:44;12.60;67.90
6672;DHT22;3372;48.690;12.362;2023-05-02T05:00:11;12.70;67.90
6672;DHT22;3372;48.690;12.362;2023-05-02T05:02:36;12.70;68.30
6672;DHT22;3372;48.690;12.362;2023-05-02T05:05:03;12.80;68.10
6672;DHT22;3372;48.690;12.362;2023-05-02T05:07:29;12.80;66.90
6672;DHT22;3372;48.690;12.362;2023-05-02T05:09:55;12.90;67.50
6672;DHT22;3372;48.690;12.362;2023-05-02T05:12:20;12.90;66.70
6672;DHT22;3372;48.690;12.362;2023-05-02T05:14:46;12.90;67.50
6672;DHT22;3372;48.690;12.362;2023-05-02T05:17:12;13.00;67.20
6672;DHT22;3372;48.690;12.362;2023-05-02T05:19:37;13.10;66.70
6672;DHT22;3372;48.690;12.362;2023-05-02T05:22:03;13.20;66.00
6672;DHT22;3372;48.690;12.362;2023-05-02T05:24:29;13.10;66.60
6672;DHT22;3372;48.690;12.362;2023-05-02T05:26:54;13.20;66.20
6672;DHT22;3372;48.690;12.362;2023-05-02T05:29:20;13.10;66.90
6672;DHT22;3372;48.690;12.362;2023-05-02T05:31:45;13.10;67.20
6672;DHT22;3372;48.690;12.362;2023-05-02T05:34:12;13.00;69.20
6672;DHT22;3372;48.690;12.362;2023-05-02T05:36:39;12.90;68.30
6672;DHT22;3372;48.690;12.362;2023-05-02T05:39:04;12.80;69.90
6672;DHT22;3372;48.690;12.362;2023-05-02T05:41:30;13.00;68.90
6672;DHT22;3372;48.690;12.362;2023-05-02T05:43:56;13.00;70.20
6672;DHT22;3372;48.690;12.362;2023-05-02T05:46:22;13.00;70.50
6672;DHT22;3372;48.690;12.362;2023-05-02T05:48:47;13.00;69.10
6672;DHT22;3372;48.690;12.362;2023-05-02T05:51:13;12.90;71.20
6672;DHT22;3372;48.690;12.362;2023-05-02T05:53:38;13.00;72.20
6672;DHT22;3372;48.690;12.362;2023-05-02T05:56:11;13.10;71.20
6672;DHT22;3372;48.690;12.362;2023-05-02T05:58:38;13.10;71.00
6672;DHT22;3372;48.690;12.362;2023-05-02T06:01:04;13.20;68.80
6672;DHT22;3372;48.690;12.362;2023-05-02T06:03:29;13.20;69.80
6672;DHT22;3372;48.690;12.362;2023-05-02T06:05:55;13.20;69.90
6672;DHT22;3372;48.690;12.362;2023-05-02T06:08:21;13.30;69.70
6672;DHT22;3372;48.690;12.362;2023-05-02T06:10:46;13.30;69.90
6672;DHT22;3372;48.690;12.362;2023-05-02T06:13:12;13.30;71.20
6672;DHT22;3372;48.690;12.362;2023-05-02T06:15:38;13.30;71.50
6672;DHT22;3372;48.690;12.362;2023-05-02T06:18:03;13.40;70.70
6672;DHT22;3372;48.690;12.362;2023-05-02T06:20:29;13.50;70.10
6672;DHT22;3372;48.690;12.362;2023-05-02T06:22:54;13.60;70.50
6672;DHT22;3372;48.690;12.362;2023-05-02T06:25:20;13.50;69.30
6672;DHT22;3372;48.690;12.362;2023-05-02T06:27:46;13.50;70.00
6672;DHT22;3372;48.690;12.362;2023-05-02T06:30:12;13.50;69.50
6672;DHT22;3372;48.690;12.362;2023-05-02T06:32:37;13.60;68.80
6672;DHT22;3372;48.690;12.362;2023-05-02T06:35:03;13.70;68.80
6672;DHT22;3372;48.690;12.362;2023-05-02T06:37:35;13.70;68.60
6672;DHT22;3372;48.690;12.362;2023-05-02T06:40:01;13.80;69.40
6672;DHT22;3372;48.690;12.362;2023-05-02T06:42:27;13.90;67.70
6672;DHT22;3372;48.690;12.362;2023-05-02T06:44:52;13.90;67.60
6672;DHT22;3372;48.690;12.362;2023-05-02T06:47:18;13.90;68.30
6672;DHT22;3372;48.690;12.362;2023-05-02T06:49:43;13.90;68.40
6672;DHT22;3372;48.690;12.362;2023-05-02T06:52:09;13.90;67.70
6672;DHT22;3372;48.690;12.362;2023-05-02T06:54:35;13.90;67.30
6672;DHT22;3372;48.690;12.362;2023-05-02T06:57:00;14.10;67.80
6672;DHT22;3372;48.690;12.362;2023-05-02T06:59:27;14.10;68.00
6672;DHT22;3372;48.690;12.362;2023-05-02T07:01:52;14.20;67.70
6672;DHT22;3372;48.690;12.362;2023-05-02T07:04:18;14.00;69.00
6672;DHT22;3372;48.690;12.362;2023-05-02T07:06:45;14.10;69.00
6672;DHT22;3372;48.690;12.362;2023-05-02T07:09:11;14.20;68.00
6672;DHT22;3372;48.690;12.362;2023-05-02T07:11:36;14.10;69.40
6672;DHT22;3372;48.690;12.362;2023-05-02T07:14:02;14.20;68.70
6672;DHT22;3372;48.690;12.362;2023-05-02T07:16:27;14.20;66.90
6672;DHT22;3372;48.690;12.362;2023-05-02T07:18:53;14.20;65.90
6672;DHT22;3372;48.690;12.362;2023-05-02T07:21:18;14.30;65.50
6672;DHT22;3372;48.690;12.362;2023-05-02T07:23:44;14.30;66.10
6672;DHT22;3372;48.690;12.362;2023-05-02T07:26:10;14.30;65.50
6672;DHT22;3372;48.690;12.362;2023-05-02T07:28:35;14.40;65.50
6672;DHT22;3372;48.690;12.362;2023-05-02T07:31:01;14.50;64.70
6672;DHT22;3372;48.690;12.362;2023-05-02T07:33:27;14.30;64.80
6672;DHT22;3372;48.690;12.362;2023-05-02T07:35:55;14.40;65.70
6672;DHT22;3372;48.690;12.362;2023-05-02T07:38:20;14.40;63.70
6672;DHT22;3372;48.690;12.362;2023-05-02T07:40:46;14.60;63.50
6672;DHT22;3372;48.690;12.362;2023-05-02T07:43:12;14.50;63.40
6672;DHT22;3372;48.690;12.362;2023-05-02T07:45:38;14.30;64.70
6672;DHT22;3372;48.690;12.362;2023-05-02T07:48:04;14.60;64.80
6672;DHT22;3372;48.690;12.362;2023-05-02T07:50:29;14.70;64.50
6672;DHT22;3372;48.690;12.362;2023-05-02T07:52:55;14.70;64.50
6672;DHT22;3372;48.690;12.362;2023-05-02T07:55:21;14.60;64.10
6672;DHT22;3372;48.690;12.362;2023-05-02T07:57:46;14.50;61.30
6672;DHT22;3372;48.690;12.362;2023-05-02T08:00:13;14.60;63.10
6672;DHT22;3372;48.690;12.362;2023-05-02T08:02:40;14.80;63.10
6672;DHT22;3372;48.690;12.362;2023-05-02T08:05:06;14.90;62.30
6672;DHT22;3372;48.690;12.362;2023-05-02T08:07:32;14.90;63.90
6672;DHT22;3372;48.690;12.362;2023-05-02T08:09:59;15.00;61.50
6672;DHT22;3372;48.690;12.362;2023-05-02T08:12:26;15.00;60.90
6672;DHT22;3372;48.690;12.362;2023-05-02T08:14:51;15.10;60.90
6672;DHT22;3372;48.690;12.362;2023-05-02T08:17:17;15.30;60.80
6672;DHT22;3372;48.690;12.362;2023-05-02T08:19:42;15.40;58.70
6672;DHT22;3372;48.690;12.362;2023-05-02T08:22:08;15.40;59.80
6672;DHT22;3372;48.690;12.362;2023-05-02T08:24:34;15.50;57.50
6672;DHT22;3372;48.690;12.362;2023-05-02T08:26:59;15.50;58.20
6672;DHT22;3372;48.690;12.362;2023-05-02T08:29:27;15.60;58.60
6672;DHT22;3372;48.690;12.362;2023-05-02T08:31:53;15.50;56.70
6672;DHT22;3372;48.690;12.362;2023-05-02T08:34:18;15.50;56.80
6672;DHT22;3372;48.690;12.362;2023-05-02T08:36:44;15.60;56.70
6672;DHT22;3372;48.690;12.362;2023-05-02T08:39:09;15.70;56.80
6672;DHT22;3372;48.690;12.362;2023-05-02T08:41:36;15.80;54.70
6672;DHT22;3372;48.690;12.362;2023-05-02T08:44:02;15.80;56.10
6672;DHT22;3372;48.690;12.362;2023-05-02T08:46:29;15.90;55.70
6672;DHT22;3372;48.690;12.362;2023-05-02T08:48:57;15.80;54.30
6672;DHT22;3372;48.690;12.362;2023-05-02T08:51:23;15.80;54.30
6672;DHT22;3372;48.690;12.362;2023-05-02T08:53:51;15.80;54.70
6672;DHT22;3372;48.690;12.362;2023-05-02T08:56:17;15.80;55.00
6672;DHT22;3372;48.690;12.362;2023-05-02T08:58:43;15.90;53.80
6672;DHT22;3372;48.690;12.362;2023-05-02T09:01:15;16.10;53.10
6672;DHT22;3372;48.690;12.362;2023-05-02T09:03:43;16.20;52.10
6672;DHT22;3372;48.690;12.362;2023-05-02T09:06:12;16.30;52.10
6672;DHT22;3372;48.690;12.362;2023-05-02T09:08:39;16.20;51.90
6672;DHT22;3372;48.690;12.362;2023-05-02T09:11:06;16.10;52.70
6672;DHT22;3372;48.690;12.362;2023-05-02T09:13:36;16.10;53.00
6672;DHT22;3372;48.690;12.362;2023-05-02T09:16:07;16.20;52.90
6672;DHT22;3372;48.690;12.362;2023-05-02T09:18:36;16.30;53.20
6672;DHT22;3372;48.690;12.362;2023-05-02T09:21:07;16.20;52.60
6672;DHT22;3372;48.690;12.362;2023-05-02T09:23:35;16.40;54.20
6672;DHT22;3372;48.690;12.362;2023-05-02T09:26:00;16.60;52.80
6672;DHT22;3372;48.690;12.362;2023-05-02T09:28:40;16.60;50.40
6672;DHT22;3372;48.690;12.362;2023-05-02T09:31:11;16.40;50.50
6672;DHT22;3372;48.690;12.362;2023-05-02T09:33:37;16.60;51.00
6672;DHT22;3372;48.690;12.362;2023-05-02T09:36:04;16.60;50.40
6672;DHT22;3372;48.690;12.362;2023-05-02T09:38:32;16.70;49.00
6672;DHT22;3372;48.690;12.362;2023-05-02T09:40:58;16.60;48.30
6672;DHT22;3372;48.690;12.362;2023-05-02T09:43:24;16.70;49.30
6672;DHT22;3372;48.690;12.362;2023-05-02T09:46:01;16.80;48.20
6672;DHT22;3372;48.690;12.362;2023-05-02T09:48:28;16.80;48.30
6672;DHT22;3372;48.690;12.362;2023-05-02T09:50:55;16.90;48.10
6672;DHT22;3372;48.690;12.362;2023-05-02T09:53:21;17.00;46.90
6672;DHT22;3372;48.690;12.362;2023-05-02T09:56:04;17.00;46.70
6672;DHT22;3372;48.690;12.362;2023-05-02T09:58:30;17.00;45.60
6672;DHT22;3372;48.690;12.362;2023-05-02T10:00:56;17.00;45.50
6672;DHT22;3372;48.690;12.362;2023-05-02T10:03:24;16.90;45.70
6672;DHT22;3372;48.690;12.362;2023-05-02T10:05:51;16.90;47.30
6672;DHT22;3372;48.690;12.362;2023-05-02T10:08:19;16.90;46.60
6672;DHT22;3372;48.690;12.362;2023-05-02T10:10:59;17.00;47.30
6672;DHT22;3372;48.690;12.362;2023-05-02T10:13:26;16.90;43.60
6672;DHT22;3372;48.690;12.362;2023-05-02T10:16:06;16.40;43.40
6672;DHT22;3372;48.690;12.362;2023-05-02T10:21:09;16.60;46.00
6672;DHT22;3372;48.690;12.362;2023-05-02T10:23:35;17.00;45.80
6672;DHT22;3372;48.690;12.362;2023-05-02T10:26:02;17.10;44.20
6672;DHT22;3372;48.690;12.362;2023-05-02T10:28:29;17.20;42.50
6672;DHT22;3372;48.690;12.362;2023-05-02T10:30:56;17.10;43.80
6672;DHT22;3372;48.690;12.362;2023-05-02T10:33:22;17.20;42.30
6672;DHT22;3372;48.690;12.362;2023-05-02T10:35:48;17.20;42.40
6672;DHT22;3372;48.690;12.362;2023-05-02T10:38:21;17.20;40.90
6672;DHT22;3372;48.690;12.362;2023-05-02T10:41:00;17.20;41.20
6672;DHT22;3372;48.690;12.362;2023-05-02T10:43:29;17.10;40.50
6672;DHT22;3372;48.690;12.362;2023-05-02T10:45:55;16.90;39.50
6672;DHT22;3372;48.690;12.362;2023-05-02T10:48:25;16.80;41.60
6672;DHT22;3372;48.690;12.362;2023-05-02T10:51:00;16.80;40.90
6672;DHT22;3372;48.690;12.362;2023-05-02T10:56:20;16.70;39.80
6672;DHT22;3372;48.690;12.362;2023-05-02T10:58:53;16.70;39.70
6672;DHT22;3372;48.690;12.362;2023-05-02T11:01:35;16.80;40.00
6672;DHT22;3372;48.690;12.362;2023-05-02T11:04:06;16.90;40.60
6672;DHT22;3372;48.690;12.362;2023-05-02T11:06:34;17.00;39.60
6672;DHT22;3372;48.690;12.362;2023-05-02T11:11:46;16.80;36.40
6672;DHT22;3372;48.690;12.362;2023-05-02T11:24:48;17.20;37.50
6672;DHT22;3372;48.690;12.362;2023-05-02T11:30:07;17.30;38.30
6672;DHT22;3372;48.690;12.362;2023-05-02T11:35:17;17.60;38.30
6672;DHT22;3372;48.690;12.362;2023-05-02T11:37:52;17.60;36.60
6672;DHT22;3372;48.690;12.362;2023-05-02T11:40:18;17.70;35.90
6672;DHT22;3372;48.690;12.362;2023-05-02T11:42:44;17.80;35.10
6672;DHT22;3372;48.690;12.362;2023-05-02T11:45:09;17.90;34.80
6672;DHT22;3372;48.690;12.362;2023-05-02T11:47:35;18.00;35.60
6672;DHT22;3372;48.690;12.362;2023-05-02T11:50:04;18.10;35.30
6672;DHT22;3372;48.690;12.362;2023-05-02T11:52:30;18.00;34.00
6672;DHT22;3372;48.690;12.362;2023-05-02T11:55:00;18.00;33.30
6672;DHT22;3372;48.690;12.362;2023-05-02T11:57:26;18.10;35.40
6672;DHT22;3372;48.690;12.362;2023-05-02T11:59:53;18.30;34.20
6672;DHT22;3372;48.690;12.362;2023-05-02T12:02:19;18.40;33.70
6672;DHT22;3372;48.690;12.362;2023-05-02T12:04:48;18.50;32.90
6672;DHT22;3372;48.690;12.362;2023-05-02T12:07:14;18.60;31.50
6672;DHT22;3372;48.690;12.362;2023-05-02T12:09:52;18.60;32.40
6672;DHT22;3372;48.690;12.362;2023-05-02T12:12:20;18.20;29.10
6672;DHT22;3372;48.690;12.362;2023-05-02T12:14:46;18.20;31.80
6672;DHT22;3372;48.690;12.362;2023-05-02T12:17:11;18.30;31.40
6672;DHT22;3372;48.690;12.362;2023-05-02T12:19:37;18.10;30.70
6672;DHT22;3372;48.690;12.362;2023-05-02T12:22:03;18.30;31.70
6672;DHT22;3372;48.690;12.362;2023-05-02T12:24:30;18.50;30.90
6672;DHT22;3372;48.690;12.362;2023-05-02T12:27:15;18.60;31.60
6672;DHT22;3372;48.690;12.362;2023-05-02T12:29:45;18.60;29.60
6672;DHT22;3372;48.690;12.362;2023-05-02T12:32:12;18.70;29.70
6672;DHT22;3372;48.690;12.362;2023-05-02T12:34:38;18.80;30.80
6672;DHT22;3372;48.690;12.362;2023-05-02T12:37:05;19.00;30.40
6672;DHT22;3372;48.690;12.362;2023-05-02T12:39:42;19.00;29.30
6672;DHT22;3372;48.690;12.362;2023-05-02T12:42:09;19.10;29.70
6672;DHT22;3372;48.690;12.362;2023-05-02T12:44:40;19.00;26.00
6672;DHT22;3372;48.690;12.362;2023-05-02T12:47:07;19.00;26.20
6672;DHT22;3372;48.690;12.362;2023-05-02T12:49:56;18.80;25.50
6672;DHT22;3372;48.690;12.362;2023-05-02T12:52:57;18.60;27.90
6672;DHT22;3372;48.690;12.362;2023-05-02T12:55:25;18.60;27.50
6672;DHT22;3372;48.690;12.362;2023-05-02T12:58:04;18.60;27.20
6672;DHT22;3372;48.690;12.362;2023-05-02T13:00:32;18.70;25.70
6672;DHT22;3372;48.690;12.362;2023-05-02T13:02:57;18.20;27.30
6672;DHT22;3372;48.690;12.362;2023-05-02T13:05:23;18.00;26.70
6672;DHT22;3372;48.690;12.362;2023-05-02T13:07:49;17.90;27.00
6672;DHT22;3372;48.690;12.362;2023-05-02T13:10:15;17.80;28.00
6672;DHT22;3372;48.690;12.362;2023-05-02T13:12:43;18.20;29.20
6672;DHT22;3372;48.690;12.362;2023-05-02T13:15:09;18.40;28.90
6672;DHT22;3372;48.690;12.362;2023-05-02T13:17:35;18.50;27.00
6672;DHT22;3372;48.690;12.362;2023-05-02T13:20:00;18.60;26.10
6672;DHT22;3372;48.690;12.362;2023-05-02T13:22:26;18.10;24.50
6672;DHT22;3372;48.690;12.362;2023-05-02T13:24:53;18.20;24.70
6672;DHT22;3372;48.690;12.362;2023-05-02T13:27:18;18.40;26.20
6672;DHT22;3372;48.690;12.362;2023-05-02T13:29:48;18.50;25.90
6672;DHT22;3372;48.690;12.362;2023-05-02T13:32:13;18.50;27.40
6672;DHT22;3372;48.690;12.362;2023-05-02T13:34:39;18.70;26.60
6672;DHT22;3372;48.690;12.362;2023-05-02T13:37:05;18.70;24.40
6672;DHT22;3372;48.690;12.362;2023-05-02T13:39:30;18.60;24.90
6672;DHT22;3372;48.690;12.362;2023-05-02T13:41:56;18.40;24.20
6672;DHT22;3372;48.690;12.362;2023-05-02T13:44:21;18.60;25.60
6672;DHT22;3372;48.690;12.362;2023-05-02T13:46:47;18.80;24.60
6672;DHT22;3372;48.690;12.362;2023-05-02T13:49:13;18.90;26.20
6672;DHT22;3372;48.690;12.362;2023-05-02T13:51:38;19.00;26.90
6672;DHT22;3372;48.690;12.362;2023-05-02T13:54:04;19.00;26.30
6672;DHT22;3372;48.690;12.362;2023-05-02T13:56:30;18.70;24.80
6672;DHT22;3372;48.690;12.362;2023-05-02T13:58:55;18.60;26.90
6672;DHT22;3372;48.690;12.362;2023-05-02T14:01:21;18.70;26.70
6672;DHT22;3372;48.690;12.362;2023-05-02T14:03:47;18.80;25.90
6672;DHT22;3372;48.690;12.362;2023-05-02T14:06:13;18.80;27.20
6672;DHT22;3372;48.690;12.362;2023-05-02T14:08:38;18.80;27.00
6672;DHT22;3372;48.690;12.362;2023-05-02T14:11:04;18.80;26.80
6672;DHT22;3372;48.690;12.362;2023-05-02T14:13:30;18.60;26.60
6672;DHT22;3372;48.690;12.362;2023-05-02T14:15:55;18.20;25.40
6672;DHT22;3372;48.690;12.362;2023-05-02T14:18:22;17.60;28.40
6672;DHT22;3372;48.690;12.362;2023-05-02T14:20:48;17.40;30.90
6672;DHT22;3372;48.690;12.362;2023-05-02T14:23:14;17.40;33.40
6672;DHT22;3372;48.690;12.362;2023-05-02T14:25:39;17.50;36.20
6672;DHT22;3372;48.690;12.362;2023-05-02T14:28:05;17.60;32.40
6672;DHT22;3372;48.690;12.362;2023-05-02T14:30:31;17.60;36.80
6672;DHT22;3372;48.690;12.362;2023-05-02T14:32:56;17.60;38.10
6672;DHT22;3372;48.690;12.362;2023-05-02T14:35:22;17.70;38.10
6672;DHT22;3372;48.690;12.362;2023-05-02T14:37:48;17.70;39.60
6672;DHT22;3372;48.690;12.362;2023-05-02T14:40:13;17.60;43.60
6672;DHT22;3372;48.690;12.362;2023-05-02T14:42:40;17.60;43.10
6672;DHT22;3372;48.690;12.362;2023-05-02T14:45:06;17.60;43.90
6672;DHT22;3372;48.690;12.362;2023-05-02T14:47:32;17.60;45.20
6672;DHT22;3372;48.690;12.362;2023-05-02T14:49:58;17.60;43.20
6672;DHT22;3372;48.690;12.362;2023-05-02T14:52:25;17.40;46.20
6672;DHT22;3372;48.690;12.362;2023-05-02T14:54:51;17.40;46.10
6672;DHT22;3372;48.690;12.362;2023-05-02T14:57:17;17.40;45.50
6672;DHT22;3372;48.690;12.362;2023-05-02T14:59:42;17.30;47.20
6672;DHT22;3372;48.690;12.362;2023-05-02T15:02:08;17.30;45.30
6672;DHT22;3372;48.690;12.362;2023-05-02T15:04:34;17.20;42.80
6672;DHT22;3372;48.690;12.362;2023-05-02T15:07:00;17.20;42.50
6672;DHT22;3372;48.690;12.362;2023-05-02T15:09:25;17.20;43.30
6672;DHT22;3372;48.690;12.362;2023-05-02T15:11:51;17.00;44.10
6672;DHT22;3372;48.690;12.362;2023-05-02T15:14:17;17.00;44.00
6672;DHT22;3372;48.690;12.362;2023-05-02T15:16:43;17.00;40.70
6672;DHT22;3372;48.690;12.362;2023-05-02T15:19:09;16.90;40.60
6672;DHT22;3372;48.690;12.362;2023-05-02T15:21:34;16.80;40.90
6672;DHT22;3372;48.690;12.362;2023-05-02T15:24:00;16.80;43.00
6672;DHT22;3372;48.690;12.362;2023-05-02T15:26:26;16.80;41.10
6672;DHT22;3372;48.690;12.362;2023-05-02T15:28:53;16.80;39.80
6672;DHT22;3372;48.690;12.362;2023-05-02T15:31:18;16.70;37.70
6672;DHT22;3372;48.690;12.362;2023-05-02T15:33:44;16.70;39.30
6672;DHT22;3372;48.690;12.362;2023-05-02T15:36:10;16.70;41.10
6672;DHT22;3372;48.690;12.362;2023-05-02T15:38:35;16.70;39.60
6672;DHT22;3372;48.690;12.362;2023-05-02T15:41:04;16.80;37.10
6672;DHT22;3372;48.690;12.362;2023-05-02T15:43:30;16.90;38.80
6672;DHT22;3372;48.690;12.362;2023-05-02T15:45:59;16.90;41.80
6672;DHT22;3372;48.690;12.362;2023-05-02T15:48:31;17.00;38.80
6672;DHT22;3372;48.690;12.362;2023-05-02T15:50:58;16.90;40.80
6672;DHT22;3372;48.690;12.362;2023-05-02T15:53:23;17.00;39.90
6672;DHT22;3372;48.690;12.362;2023-05-02T15:55:50;16.90;37.60
6672;DHT22;3372;48.690;12.362;2023-05-02T15:58:18;16.80;38.60
6672;DHT22;3372;48.690;12.362;2023-05-02T16:00:47;16.90;38.80
6672;DHT22;3372;48.690;12.362;2023-05-02T16:03:13;16.80;37.10
6672;DHT22;3372;48.690;12.362;2023-05-02T16:05:39;16.90;37.00
6672;DHT22;3372;48.690;12.362;2023-05-02T16:08:05;17.00;36.30
6672;DHT22;3372;48.690;12.362;2023-05-02T16:10:30;17.00;31.90
6672;DHT22;3372;48.690;12.362;2023-05-02T16:12:56;17.00;32.20
6672;DHT22;3372;48.690;12.362;2023-05-02T16:15:22;16.90;34.30
6672;DHT22;3372;48.690;12.362;2023-05-02T16:17:49;16.70;35.90
6672;DHT22;3372;48.690;12.362;2023-05-02T16:20:15;16.50;34.80
6672;DHT22;3372;48.690;12.362;2023-05-02T16:22:42;16.30;36.60
6672;DHT22;3372;48.690;12.362;2023-05-02T16:25:09;16.30;38.50
6672;DHT22;3372;48.690;12.362;2023-05-02T16:27:35;16.20;40.60
6672;DHT22;3372;48.690;12.362;2023-05-02T16:30:01;16.10;38.00